sensor_id;sensor_type;location;lat;lon;timestamp;temperature;humidity
39889;DHT22;25563;50.844;4.308;2023-06-10T00:00:42;25.30;58.30
39889;DHT22;25563;50.844;4.308;2023-06-10T00:03:08;25.30;58.40
39889;DHT22;25563;50.844;4.308;2023-06-10T00:05:34;25.30;58.50
39889;DHT22;25563;50.844;4.308;2023-06-10T00:08:01;25.20;58.50
39889;DHT22;25563;50.844;4.308;2023-06-10T00:10:33;25.20;58.60
39889;DHT22;25563;50.844;4.308;2023-06-10T00:13:01;25.20;58.60
39889;DHT22;25563;50.844;4.308;2023-06-10T00:15:27;25.20;58.80
39889;DHT22;25563;50.844;4.308;2023-06-10T00:17:53;25.20;58.80
39889;DHT22;25563;50.844;4.308;2023-06-10T00:20:21;25.10;58.90
39889;DHT22;25563;50.844;4.308;2023-06-10T00:22:51;25.10;58.90
39889;DHT22;25563;50.844;4.308;2023-06-10T00:25:19;25.10;58.90
39889;DHT22;25563;50.844;4.308;2023-06-10T00:27:45;25.00;59.00
39889;DHT22;25563;50.844;4.308;2023-06-10T00:30:11;25.00;59.20
39889;DHT22;25563;50.844;4.308;2023-06-10T00:32:37;24.90;59.00
39889;DHT22;25563;50.844;4.308;2023-06-10T00:35:06;24.90;59.10
39889;DHT22;25563;50.844;4.308;2023-06-10T00:37:33;24.90;59.30
39889;DHT22;25563;50.844;4.308;2023-06-10T00:40:04;24.90;59.40
39889;DHT22;25563;50.844;4.308;2023-06-10T00:42:30;24.80;59.30
39889;DHT22;25563;50.844;4.308;2023-06-10T00:44:56;24.80;59.40
39889;DHT22;25563;50.844;4.308;2023-06-10T00:47:22;24.80;59.50
39889;DHT22;25563;50.844;4.308;2023-06-10T00:49:49;24.70;59.40
39889;DHT22;25563;50.844;4.308;2023-06-10T00:52:16;24.70;59.50
39889;DHT22;25563;50.844;4.308;2023-06-10T00:54:44;24.70;59.60
39889;DHT22;25563;50.844;4.308;2023-06-10T00:57:10;24.70;59.50
39889;DHT22;25563;50.844;4.308;2023-06-10T00:59:38;24.70;59.50
39889;DHT22;25563;50.844;4.308;2023-06-10T01:02:05;24.60;59.60
39889;DHT22;25563;50.844;4.308;2023-06-10T01:04:33;24.60;59.60
39889;DHT22;25563;50.844;4.308;2023-06-10T01:09:38;24.60;59.60
39889;DHT22;25563;50.844;4.308;2023-06-10T01:14:36;24.50;59.80
39889;DHT22;25563;50.844;4.308;2023-06-10T01:17:04;24.50;59.80
39889;DHT22;25563;50.844;4.308;2023-06-10T01:19:31;24.50;59.90
39889;DHT22;25563;50.844;4.308;2023-06-10T01:21:57;24.40;59.90
39889;DHT22;25563;50.844;4.308;2023-06-10T01:24:26;24.40;59.80
39889;DHT22;25563;50.844;4.308;2023-06-10T01:26:54;24.40;59.80
39889;DHT22;25563;50.844;4.308;2023-06-10T01:29:52;24.40;59.80
39889;DHT22;25563;50.844;4.308;2023-06-10T01:32:29;24.40;59.90
39889;DHT22;25563;50.844;4.308;2023-06-10T01:34:57;24.30;59.90
39889;DHT22;25563;50.844;4.308;2023-06-10T01:37:26;24.30;59.90
39889;DHT22;25563;50.844;4.308;2023-06-10T01:39:52;24.30;60.10
39889;DHT22;25563;50.844;4.308;2023-06-10T01:42:21;24.30;60.20
39889;DHT22;25563;50.844;4.308;2023-06-10T01:44:47;24.20;60.00
39889;DHT22;25563;50.844;4.308;2023-06-10T01:47:13;24.20;60.20
39889;DHT22;25563;50.844;4.308;2023-06-10T01:49:38;24.20;60.30
39889;DHT22;25563;50.844;4.308;2023-06-10T01:52:05;24.10;60.20
39889;DHT22;25563;50.844;4.308;2023-06-10T01:54:31;24.10;60.30
39889;DHT22;25563;50.844;4.308;2023-06-10T01:56:57;24.10;60.40
39889;DHT22;25563;50.844;4.308;2023-06-10T01:59:22;24.10;60.40
39889;DHT22;25563;50.844;4.308;2023-06-10T02:01:48;24.10;60.50
39889;DHT22;25563;50.844;4.308;2023-06-10T02:04:14;24.00;60.50
39889;DHT22;25563;50.844;4.308;2023-06-10T02:06:40;24.00;60.60
39889;DHT22;25563;50.844;4.308;2023-06-10T02:09:05;24.00;60.70
39889;DHT22;25563;50.844;4.308;2023-06-10T02:11:31;24.00;60.60
39889;DHT22;25563;50.844;4.308;2023-06-10T02:13:57;24.00;60.70
39889;DHT22;25563;50.844;4.308;2023-06-10T02:16:23;24.00;60.70
39889;DHT22;25563;50.844;4.308;2023-06-10T02:18:49;23.90;60.70
39889;DHT22;25563;50.844;4.308;2023-06-10T02:21:15;23.90;60.80
39889;DHT22;25563;50.844;4.308;2023-06-10T02:23:41;23.90;60.90
39889;DHT22;25563;50.844;4.308;2023-06-10T02:26:07;23.80;60.90
39889;DHT22;25563;50.844;4.308;2023-06-10T02:28:32;23.80;61.00
39889;DHT22;25563;50.844;4.308;2023-06-10T02:30:58;23.80;61.10
39889;DHT22;25563;50.844;4.308;2023-06-10T02:33:24;23.70;61.10
39889;DHT22;25563;50.844;4.308;2023-06-10T02:35:51;23.70;61.20
39889;DHT22;25563;50.844;4.308;2023-06-10T02:38:16;23.70;61.30
39889;DHT22;25563;50.844;4.308;2023-06-10T02:40:42;23.70;61.40
39889;DHT22;25563;50.844;4.308;2023-06-10T02:43:09;23.60;61.40
39889;DHT22;25563;50.844;4.308;2023-06-10T02:45:35;23.60;62.00
39889;DHT22;25563;50.844;4.308;2023-06-10T02:48:01;23.60;61.60
39889;DHT22;25563;50.844;4.308;2023-06-10T02:50:26;23.60;61.70
39889;DHT22;25563;50.844;4.308;2023-06-10T02:52:52;23.60;61.70
39889;DHT22;25563;50.844;4.308;2023-06-10T02:55:19;23.60;61.80
39889;DHT22;25563;50.844;4.308;2023-06-10T02:57:44;23.50;62.00
39889;DHT22;25563;50.844;4.308;2023-06-10T03:00:11;23.50;62.30
39889;DHT22;25563;50.844;4.308;2023-06-10T03:02:39;23.40;62.40
39889;DHT22;25563;50.844;4.308;2023-06-10T03:05:06;23.40;62.50
39889;DHT22;25563;50.844;4.308;2023-06-10T03:07:36;23.40;62.70
39889;DHT22;25563;50.844;4.308;2023-06-10T03:10:02;23.30;62.90
39889;DHT22;25563;50.844;4.308;2023-06-10T03:12:29;23.30;63.00
39889;DHT22;25563;50.844;4.308;2023-06-10T03:14:54;23.20;63.20
39889;DHT22;25563;50.844;4.308;2023-06-10T03:17:20;23.20;63.60
39889;DHT22;25563;50.844;4.308;2023-06-10T03:19:46;23.10;64.00
39889;DHT22;25563;50.844;4.308;2023-06-10T03:22:13;23.10;64.10
39889;DHT22;25563;50.844;4.308;2023-06-10T03:24:39;23.00;64.10
39889;DHT22;25563;50.844;4.308;2023-06-10T03:27:09;23.00;64.40
39889;DHT22;25563;50.844;4.308;2023-06-10T03:29:37;23.00;64.50
39889;DHT22;25563;50.844;4.308;2023-06-10T03:32:03;22.90;64.50
39889;DHT22;25563;50.844;4.308;2023-06-10T03:34:29;22.90;64.70
39889;DHT22;25563;50.844;4.308;2023-06-10T03:36:56;22.90;64.50
39889;DHT22;25563;50.844;4.308;2023-06-10T03:39:22;22.90;64.60
39889;DHT22;25563;50.844;4.308;2023-06-10T03:41:49;22.80;64.50
39889;DHT22;25563;50.844;4.308;2023-06-10T03:44:15;22.80;64.60
39889;DHT22;25563;50.844;4.308;2023-06-10T03:46:41;22.80;64.70
39889;DHT22;25563;50.844;4.308;2023-06-10T03:49:07;22.80;65.10
39889;DHT22;25563;50.844;4.308;2023-06-10T03:51:35;22.80;65.20
39889;DHT22;25563;50.844;4.308;2023-06-10T03:54:02;22.70;65.30
39889;DHT22;25563;50.844;4.308;2023-06-10T03:56:28;22.70;65.50
39889;DHT22;25563;50.844;4.308;2023-06-10T03:58:54;22.70;65.50
39889;DHT22;25563;50.844;4.308;2023-06-10T04:01:21;22.70;65.60
39889;DHT22;25563;50.844;4.308;2023-06-10T04:03:47;22.70;65.70
39889;DHT22;25563;50.844;4.308;2023-06-10T04:06:14;22.60;65.80
39889;DHT22;25563;50.844;4.308;2023-06-10T04:08:40;22.60;65.90
39889;DHT22;25563;50.844;4.308;2023-06-10T04:11:06;22.60;66.10
39889;DHT22;25563;50.844;4.308;2023-06-10T04:13:32;22.60;66.20
39889;DHT22;25563;50.844;4.308;2023-06-10T04:15:58;22.60;66.50
39889;DHT22;25563;50.844;4.308;2023-06-10T04:18:24;22.50;66.50
39889;DHT22;25563;50.844;4.308;2023-06-10T04:20:51;22.50;66.60
39889;DHT22;25563;50.844;4.308;2023-06-10T04:23:17;22.50;67.30
39889;DHT22;25563;50.844;4.308;2023-06-10T04:25:42;22.50;66.80
39889;DHT22;25563;50.844;4.308;2023-06-10T04:28:08;22.50;66.90
39889;DHT22;25563;50.844;4.308;2023-06-10T04:30:34;22.40;66.90
39889;DHT22;25563;50.844;4.308;2023-06-10T04:33:00;22.40;67.00
39889;DHT22;25563;50.844;4.308;2023-06-10T04:35:26;22.40;67.10
39889;DHT22;25563;50.844;4.308;2023-06-10T04:37:54;22.40;67.10
39889;DHT22;25563;50.844;4.308;2023-06-10T04:40:20;22.40;67.20
39889;DHT22;25563;50.844;4.308;2023-06-10T04:42:46;22.30;67.30
39889;DHT22;25563;50.844;4.308;2023-06-10T04:45:12;22.30;67.40
39889;DHT22;25563;50.844;4.308;2023-06-10T04:47:37;22.30;67.50
39889;DHT22;25563;50.844;4.308;2023-06-10T04:50:03;22.30;67.50
39889;DHT22;25563;50.844;4.308;2023-06-10T04:52:29;22.30;67.60
39889;DHT22;25563;50.844;4.308;2023-06-10T04:54:57;22.30;67.70
39889;DHT22;25563;50.844;4.308;2023-06-10T04:57:23;22.40;67.70
39889;DHT22;25563;50.844;4.308;2023-06-10T04:59:49;22.40;67.70
39889;DHT22;25563;50.844;4.308;2023-06-10T05:02:15;22.40;67.70
39889;DHT22;25563;50.844;4.308;2023-06-10T05:04:41;22.40;67.80
39889;DHT22;25563;50.844;4.308;2023-06-10T05:07:07;22.40;67.50
39889;DHT22;25563;50.844;4.308;2023-06-10T05:09:32;22.40;67.60
39889;DHT22;25563;50.844;4.308;2023-06-10T05:11:58;22.50;67.80
39889;DHT22;25563;50.844;4.308;2023-06-10T05:14:25;22.50;67.70
39889;DHT22;25563;50.844;4.308;2023-06-10T05:16:51;22.50;67.80
39889;DHT22;25563;50.844;4.308;2023-06-10T05:19:17;22.50;67.70
39889;DHT22;25563;50.844;4.308;2023-06-10T05:21:44;22.60;67.50
39889;DHT22;25563;50.844;4.308;2023-06-10T05:24:11;22.60;67.60
39889;DHT22;25563;50.844;4.308;2023-06-10T05:26:36;22.60;67.30
39889;DHT22;25563;50.844;4.308;2023-06-10T05:29:07;22.70;67.50
39889;DHT22;25563;50.844;4.308;2023-06-10T05:31:34;22.70;67.20
39889;DHT22;25563;50.844;4.308;2023-06-10T05:34:00;22.80;67.20
39889;DHT22;25563;50.844;4.308;2023-06-10T05:36:26;22.90;67.10
39889;DHT22;25563;50.844;4.308;2023-06-10T05:38:52;22.90;66.90
39889;DHT22;25563;50.844;4.308;2023-06-10T05:41:18;23.00;66.40
39889;DHT22;25563;50.844;4.308;2023-06-10T05:43:44;23.00;66.60
39889;DHT22;25563;50.844;4.308;2023-06-10T05:46:10;23.00;66.60
39889;DHT22;25563;50.844;4.308;2023-06-10T05:48:36;23.10;66.70
39889;DHT22;25563;50.844;4.308;2023-06-10T05:51:01;23.10;66.40
39889;DHT22;25563;50.844;4.308;2023-06-10T05:53:27;23.20;66.40
39889;DHT22;25563;50.844;4.308;2023-06-10T05:55:53;23.20;66.50
39889;DHT22;25563;50.844;4.308;2023-06-10T05:58:23;23.20;66.30
39889;DHT22;25563;50.844;4.308;2023-06-10T06:00:48;23.30;66.40
39889;DHT22;25563;50.844;4.308;2023-06-10T06:03:14;23.30;66.10
39889;DHT22;25563;50.844;4.308;2023-06-10T06:05:40;23.30;65.70
39889;DHT22;25563;50.844;4.308;2023-06-10T06:08:07;23.40;65.80
39889;DHT22;25563;50.844;4.308;2023-06-10T06:10:33;23.50;65.60
39889;DHT22;25563;50.844;4.308;2023-06-10T06:12:59;23.50;65.00
39889;DHT22;25563;50.844;4.308;2023-06-10T06:15:25;23.60;65.00
39889;DHT22;25563;50.844;4.308;2023-06-10T06:17:51;23.60;65.10
39889;DHT22;25563;50.844;4.308;2023-06-10T06:20:22;23.70;65.00
39889;DHT22;25563;50.844;4.308;2023-06-10T06:22:48;23.70;64.70
39889;DHT22;25563;50.844;4.308;2023-06-10T06:25:14;23.70;64.80
39889;DHT22;25563;50.844;4.308;2023-06-10T06:27:40;23.80;64.90
39889;DHT22;25563;50.844;4.308;2023-06-10T06:30:07;23.80;64.90
39889;DHT22;25563;50.844;4.308;2023-06-10T06:32:33;23.90;64.70
39889;DHT22;25563;50.844;4.308;2023-06-10T06:34:58;24.00;64.60
39889;DHT22;25563;50.844;4.308;2023-06-10T06:37:25;24.00;64.30
39889;DHT22;25563;50.844;4.308;2023-06-10T06:39:51;24.00;64.20
39889;DHT22;25563;50.844;4.308;2023-06-10T06:42:17;24.10;64.50
39889;DHT22;25563;50.844;4.308;2023-06-10T06:44:43;24.20;64.40
39889;DHT22;25563;50.844;4.308;2023-06-10T06:47:09;24.20;64.40
39889;DHT22;25563;50.844;4.308;2023-06-10T06:49:35;24.30;64.50
39889;DHT22;25563;50.844;4.308;2023-06-10T06:52:01;24.30;64.10
39889;DHT22;25563;50.844;4.308;2023-06-10T06:54:27;24.40;64.00
39889;DHT22;25563;50.844;4.308;2023-06-10T06:56:53;24.40;63.00
39889;DHT22;25563;50.844;4.308;2023-06-10T06:59:18;24.50;62.70
39889;DHT22;25563;50.844;4.308;2023-06-10T07:01:47;24.50;63.30
39889;DHT22;25563;50.844;4.308;2023-06-10T07:04:15;24.50;63.20
39889;DHT22;25563;50.844;4.308;2023-06-10T07:06:40;24.60;63.00
39889;DHT22;25563;50.844;4.308;2023-06-10T07:09:07;24.60;63.40
39889;DHT22;25563;50.844;4.308;2023-06-10T07:11:34;24.70;63.10
39889;DHT22;25563;50.844;4.308;2023-06-10T07:14:00;24.80;62.60
39889;DHT22;25563;50.844;4.308;2023-06-10T07:16:26;24.80;61.40
39889;DHT22;25563;50.844;4.308;2023-06-10T07:18:52;24.90;62.30
39889;DHT22;25563;50.844;4.308;2023-06-10T07:21:18;25.00;62.30
39889;DHT22;25563;50.844;4.308;2023-06-10T07:23:44;25.10;61.20
39889;DHT22;25563;50.844;4.308;2023-06-10T07:26:10;25.20;60.80
39889;DHT22;25563;50.844;4.308;2023-06-10T07:28:41;25.30;60.60
39889;DHT22;25563;50.844;4.308;2023-06-10T07:31:07;25.40;60.50
39889;DHT22;25563;50.844;4.308;2023-06-10T07:33:34;25.40;60.20
39889;DHT22;25563;50.844;4.308;2023-06-10T07:36:00;25.50;60.50
39889;DHT22;25563;50.844;4.308;2023-06-10T07:38:26;25.50;60.10
39889;DHT22;25563;50.844;4.308;2023-06-10T07:40:52;25.60;60.40
39889;DHT22;25563;50.844;4.308;2023-06-10T07:43:18;25.70;60.50
39889;DHT22;25563;50.844;4.308;2023-06-10T07:45:44;25.80;59.80
39889;DHT22;25563;50.844;4.308;2023-06-10T07:48:10;25.80;59.50
39889;DHT22;25563;50.844;4.308;2023-06-10T07:50:35;25.90;59.60
39889;DHT22;25563;50.844;4.308;2023-06-10T07:53:01;26.00;59.50
39889;DHT22;25563;50.844;4.308;2023-06-10T07:55:27;26.10;58.50
39889;DHT22;25563;50.844;4.308;2023-06-10T07:57:54;26.20;58.60
39889;DHT22;25563;50.844;4.308;2023-06-10T08:00:21;26.20;58.30
39889;DHT22;25563;50.844;4.308;2023-06-10T08:02:47;26.40;58.10
39889;DHT22;25563;50.844;4.308;2023-06-10T08:05:13;26.50;57.50
39889;DHT22;25563;50.844;4.308;2023-06-10T08:07:40;26.50;57.60
39889;DHT22;25563;50.844;4.308;2023-06-10T08:10:06;26.60;57.50
39889;DHT22;25563;50.844;4.308;2023-06-10T08:12:33;26.70;57.00
39889;DHT22;25563;50.844;4.308;2023-06-10T08:15:00;26.80;56.70
39889;DHT22;25563;50.844;4.308;2023-06-10T08:17:26;26.80;57.60
39889;DHT22;25563;50.844;4.308;2023-06-10T08:19:51;26.80;57.60
39889;DHT22;25563;50.844;4.308;2023-06-10T08:22:17;26.90;57.10
39889;DHT22;25563;50.844;4.308;2023-06-10T08:24:43;27.00;57.20
39889;DHT22;25563;50.844;4.308;2023-06-10T08:27:09;27.20;56.40
39889;DHT22;25563;50.844;4.308;2023-06-10T08:29:36;27.30;56.30
39889;DHT22;25563;50.844;4.308;2023-06-10T08:32:02;27.30;56.50
39889;DHT22;25563;50.844;4.308;2023-06-10T08:34:28;27.40;56.60
39889;DHT22;25563;50.844;4.308;2023-06-10T08:36:54;27.40;57.00
39889;DHT22;25563;50.844;4.308;2023-06-10T08:39:21;27.40;56.30
39889;DHT22;25563;50.844;4.308;2023-06-10T08:42:11;27.50;56.00
39889;DHT22;25563;50.844;4.308;2023-06-10T08:44:40;27.50;56.00
39889;DHT22;25563;50.844;4.308;2023-06-10T08:47:16;27.60;55.40
39889;DHT22;25563;50.844;4.308;2023-06-10T08:49:46;27.60;56.10
39889;DHT22;25563;50.844;4.308;2023-06-10T08:52:17;27.70;55.70
39889;DHT22;25563;50.844;4.308;2023-06-10T08:57:17;27.90;55.70
39889;DHT22;25563;50.844;4.308;2023-06-10T08:59:46;28.00;54.50
39889;DHT22;25563;50.844;4.308;2023-06-10T09:02:13;28.10;54.50
39889;DHT22;25563;50.844;4.308;2023-06-10T09:04:39;28.00;54.60
39889;DHT22;25563;50.844;4.308;2023-06-10T09:07:05;28.10;55.00
39889;DHT22;25563;50.844;4.308;2023-06-10T09:09:32;28.20;55.20
39889;DHT22;25563;50.844;4.308;2023-06-10T09:12:00;28.20;55.40
39889;DHT22;25563;50.844;4.308;2023-06-10T09:14:26;28.20;55.20
39889;DHT22;25563;50.844;4.308;2023-06-10T09:16:52;28.20;55.40
39889;DHT22;25563;50.844;4.308;2023-06-10T09:19:22;28.30;54.70
39889;DHT22;25563;50.844;4.308;2023-06-10T09:21:48;28.40;53.80
39889;DHT22;25563;50.844;4.308;2023-06-10T09:24:15;28.50;54.10
39889;DHT22;25563;50.844;4.308;2023-06-10T09:26:42;28.60;53.70
39889;DHT22;25563;50.844;4.308;2023-06-10T09:29:09;28.60;53.70
39889;DHT22;25563;50.844;4.308;2023-06-10T09:31:38;28.70;54.10
39889;DHT22;25563;50.844;4.308;2023-06-10T09:34:14;28.70;54.50
39889;DHT22;25563;50.844;4.308;2023-06-10T09:36:42;28.70;54.50
39889;DHT22;25563;50.844;4.308;2023-06-10T09:39:18;28.70;54.10
39889;DHT22;25563;50.844;4.308;2023-06-10T09:41:45;28.90;53.50
39889;DHT22;25563;50.844;4.308;2023-06-10T09:44:19;28.90;53.80
39889;DHT22;25563;50.844;4.308;2023-06-10T09:46:46;29.00;52.30
39889;DHT22;25563;50.844;4.308;2023-06-10T09:49:13;29.10;52.80
39889;DHT22;25563;50.844;4.308;2023-06-10T09:51:53;29.20;52.00
39889;DHT22;25563;50.844;4.308;2023-06-10T09:54:20;29.20;52.80
39889;DHT22;25563;50.844;4.308;2023-06-10T09:56:51;29.20;53.20
39889;DHT22;25563;50.844;4.308;2023-06-10T09:59:28;29.20;52.60
39889;DHT22;25563;50.844;4.308;2023-06-10T10:01:55;29.30;52.40
39889;DHT22;25563;50.844;4.308;2023-06-10T10:04:26;29.40;51.90
39889;DHT22;25563;50.844;4.308;2023-06-10T10:06:52;29.50;51.10
39889;DHT22;25563;50.844;4.308;2023-06-10T10:09:18;29.60;50.00
39889;DHT22;25563;50.844;4.308;2023-06-10T10:11:44;29.60;50.30
39889;DHT22;25563;50.844;4.308;2023-06-10T10:14:11;29.60;50.40
39889;DHT22;25563;50.844;4.308;2023-06-10T10:16:41;29.60;50.60
39889;DHT22;25563;50.844;4.308;2023-06-10T10:19:11;29.60;50.20
39889;DHT22;25563;50.844;4.308;2023-06-10T10:21:48;29.50;51.30
39889;DHT22;25563;50.844;4.308;2023-06-10T10:24:21;29.50;52.40
39889;DHT22;25563;50.844;4.308;2023-06-10T10:26:49;29.50;52.40
39889;DHT22;25563;50.844;4.308;2023-06-10T10:31:56;29.70;51.60
39889;DHT22;25563;50.844;4.308;2023-06-10T10:34:33;30.00;49.80
39889;DHT22;25563;50.844;4.308;2023-06-10T10:37:01;30.10;50.30
39889;DHT22;25563;50.844;4.308;2023-06-10T10:39:27;30.20;48.20
39889;DHT22;25563;50.844;4.308;2023-06-10T10:41:55;30.40;47.80
39889;DHT22;25563;50.844;4.308;2023-06-10T10:44:21;30.60;47.80
39889;DHT22;25563;50.844;4.308;2023-06-10T10:46:49;30.50;48.20
39889;DHT22;25563;50.844;4.308;2023-06-10T10:49:15;30.60;48.30
39889;DHT22;25563;50.844;4.308;2023-06-10T10:52:02;30.80;48.10
39889;DHT22;25563;50.844;4.308;2023-06-10T10:54:35;31.00;45.40
39889;DHT22;25563;50.844;4.308;2023-06-10T10:57:19;31.10;43.90
39889;DHT22;25563;50.844;4.308;2023-06-10T11:02:45;31.20;44.70
39889;DHT22;25563;50.844;4.308;2023-06-10T11:05:15;31.30;44.70
39889;DHT22;25563;50.844;4.308;2023-06-10T11:07:52;31.40;45.40
39889;DHT22;25563;50.844;4.308;2023-06-10T11:10:19;31.40;43.30
39889;DHT22;25563;50.844;4.308;2023-06-10T11:12:54;31.50;43.80
39889;DHT22;25563;50.844;4.308;2023-06-10T11:15:24;31.50;44.70
39889;DHT22;25563;50.844;4.308;2023-06-10T11:29:04;32.00;43.80
39889;DHT22;25563;50.844;4.308;2023-06-10T11:31:45;32.30;42.30
39889;DHT22;25563;50.844;4.308;2023-06-10T11:34:12;32.30;43.00
39889;DHT22;25563;50.844;4.308;2023-06-10T11:36:40;32.40;43.70
39889;DHT22;25563;50.844;4.308;2023-06-10T11:39:08;32.40;44.00
39889;DHT22;25563;50.844;4.308;2023-06-10T11:41:35;32.40;45.10
39889;DHT22;25563;50.844;4.308;2023-06-10T11:44:13;32.50;44.40
39889;DHT22;25563;50.844;4.308;2023-06-10T11:46:39;32.70;43.50
39889;DHT22;25563;50.844;4.308;2023-06-10T11:49:06;32.90;42.60
39889;DHT22;25563;50.844;4.308;2023-06-10T11:51:39;33.10;42.90
39889;DHT22;25563;50.844;4.308;2023-06-10T11:54:08;34.20;42.60
39889;DHT22;25563;50.844;4.308;2023-06-10T11:56:34;37.10;40.90
39889;DHT22;25563;50.844;4.308;2023-06-10T11:59:02;39.40;40.00
39889;DHT22;25563;50.844;4.308;2023-06-10T12:01:30;40.50;39.10
39889;DHT22;25563;50.844;4.308;2023-06-10T12:04:07;41.70;38.40
39889;DHT22;25563;50.844;4.308;2023-06-10T12:06:40;41.70;37.60
39889;DHT22;25563;50.844;4.308;2023-06-10T12:09:13;42.10;37.60
39889;DHT22;25563;50.844;4.308;2023-06-10T12:11:39;40.90;37.50
39889;DHT22;25563;50.844;4.308;2023-06-10T12:14:05;39.20;38.00
39889;DHT22;25563;50.844;4.308;2023-06-10T12:16:31;39.70;38.00
39889;DHT22;25563;50.844;4.308;2023-06-10T12:19:02;41.00;37.70
39889;DHT22;25563;50.844;4.308;2023-06-10T12:21:28;42.30;37.30
39889;DHT22;25563;50.844;4.308;2023-06-10T12:24:09;43.20;36.70
39889;DHT22;25563;50.844;4.308;2023-06-10T12:26:43;43.30;36.60
39889;DHT22;25563;50.844;4.308;2023-06-10T12:32:15;45.20;36.50
39889;DHT22;25563;50.844;4.308;2023-06-10T12:34:41;44.90;36.30
39889;DHT22;25563;50.844;4.308;2023-06-10T12:37:11;45.10;36.00
39889;DHT22;25563;50.844;4.308;2023-06-10T12:39:41;44.90;35.30
39889;DHT22;25563;50.844;4.308;2023-06-10T12:42:09;44.70;35.20
39889;DHT22;25563;50.844;4.308;2023-06-10T12:44:39;44.00;35.60
39889;DHT22;25563;50.844;4.308;2023-06-10T12:47:09;42.90;35.70
39889;DHT22;25563;50.844;4.308;2023-06-10T12:49:36;43.70;36.10
39889;DHT22;25563;50.844;4.308;2023-06-10T12:52:03;44.30;35.30
39889;DHT22;25563;50.844;4.308;2023-06-10T12:54:29;45.00;35.50
39889;DHT22;25563;50.844;4.308;2023-06-10T12:56:55;45.80;35.20
39889;DHT22;25563;50.844;4.308;2023-06-10T12:59:20;46.20;34.70
39889;DHT22;25563;50.844;4.308;2023-06-10T13:01:53;45.90;34.60
39889;DHT22;25563;50.844;4.308;2023-06-10T13:04:19;46.00;34.70
39889;DHT22;25563;50.844;4.308;2023-06-10T13:06:46;45.80;34.20
39889;DHT22;25563;50.844;4.308;2023-06-10T13:09:13;45.60;34.60
39889;DHT22;25563;50.844;4.308;2023-06-10T13:11:39;45.70;34.50
39889;DHT22;25563;50.844;4.308;2023-06-10T13:14:06;46.30;34.40
39889;DHT22;25563;50.844;4.308;2023-06-10T13:16:32;46.60;34.60
39889;DHT22;25563;50.844;4.308;2023-06-10T13:18:58;46.60;34.30
39889;DHT22;25563;50.844;4.308;2023-06-10T13:21:24;46.00;34.40
39889;DHT22;25563;50.844;4.308;2023-06-10T13:23:51;46.00;34.60
39889;DHT22;25563;50.844;4.308;2023-06-10T13:26:17;46.20;34.40
39889;DHT22;25563;50.844;4.308;2023-06-10T13:28:43;44.80;35.00
39889;DHT22;25563;50.844;4.308;2023-06-10T13:31:09;44.20;35.30
39889;DHT22;25563;50.844;4.308;2023-06-10T13:33:35;42.50;36.00
39889;DHT22;25563;50.844;4.308;2023-06-10T13:36:01;41.40;36.40
39889;DHT22;25563;50.844;4.308;2023-06-10T13:38:26;42.10;35.90
39889;DHT22;25563;50.844;4.308;2023-06-10T13:40:53;43.10;35.40
39889;DHT22;25563;50.844;4.308;2023-06-10T13:43:18;44.00;35.50
39889;DHT22;25563;50.844;4.308;2023-06-10T13:45:44;45.40;35.00
39889;DHT22;25563;50.844;4.308;2023-06-10T13:48:10;45.80;34.40
39889;DHT22;25563;50.844;4.308;2023-06-10T13:50:37;46.10;34.50
39889;DHT22;25563;50.844;4.308;2023-06-10T13:53:03;46.60;34.00
39889;DHT22;25563;50.844;4.308;2023-06-10T13:55:29;45.60;33.80
39889;DHT22;25563;50.844;4.308;2023-06-10T13:57:55;45.80;34.00
39889;DHT22;25563;50.844;4.308;2023-06-10T14:00:21;46.80;34.10
39889;DHT22;25563;50.844;4.308;2023-06-10T14:02:46;47.00;33.50
39889;DHT22;25563;50.844;4.308;2023-06-10T14:05:12;47.00;33.60
39889;DHT22;25563;50.844;4.308;2023-06-10T14:07:38;47.20;33.50
39889;DHT22;25563;50.844;4.308;2023-06-10T14:10:05;47.00;33.40
39889;DHT22;25563;50.844;4.308;2023-06-10T14:12:31;46.00;33.60
39889;DHT22;25563;50.844;4.308;2023-06-10T14:14:57;46.50;33.80
39889;DHT22;25563;50.844;4.308;2023-06-10T14:17:22;47.30;33.50
39889;DHT22;25563;50.844;4.308;2023-06-10T14:19:49;47.40;33.20
39889;DHT22;25563;50.844;4.308;2023-06-10T14:22:15;47.60;33.10
39889;DHT22;25563;50.844;4.308;2023-06-10T14:24:41;47.30;32.90
39889;DHT22;25563;50.844;4.308;2023-06-10T14:27:06;47.10;33.10
39889;DHT22;25563;50.844;4.308;2023-06-10T14:29:32;47.70;33.10
39889;DHT22;25563;50.844;4.308;2023-06-10T14:31:59;48.20;32.90
39889;DHT22;25563;50.844;4.308;2023-06-10T14:34:26;48.70;32.80
39889;DHT22;25563;50.844;4.308;2023-06-10T14:36:59;49.00;32.80
39889;DHT22;25563;50.844;4.308;2023-06-10T14:39:25;49.20;32.50
39889;DHT22;25563;50.844;4.308;2023-06-10T14:41:51;48.50;32.50
39889;DHT22;25563;50.844;4.308;2023-06-10T14:44:21;48.40;32.50
39889;DHT22;25563;50.844;4.308;2023-06-10T14:46:47;48.00;32.40
39889;DHT22;25563;50.844;4.308;2023-06-10T14:49:13;47.70;32.40
39889;DHT22;25563;50.844;4.308;2023-06-10T14:51:38;47.10;32.60
39889;DHT22;25563;50.844;4.308;2023-06-10T14:54:04;46.60;32.60
39889;DHT22;25563;50.844;4.308;2023-06-10T14:56:30;46.10;32.80
39889;DHT22;25563;50.844;4.308;2023-06-10T14:58:55;45.80;32.90
39889;DHT22;25563;50.844;4.308;2023-06-10T15:01:21;45.00;33.40
39889;DHT22;25563;50.844;4.308;2023-06-10T15:03:47;45.70;33.40
39889;DHT22;25563;50.844;4.308;2023-06-10T15:06:12;46.30;33.40
39889;DHT22;25563;50.844;4.308;2023-06-10T15:08:38;47.10;33.40
39889;DHT22;25563;50.844;4.308;2023-06-10T15:11:04;47.70;33.00
39889;DHT22;25563;50.844;4.308;2023-06-10T15:13:30;47.60;32.70
39889;DHT22;25563;50.844;4.308;2023-06-10T15:15:55;45.60;33.00
39889;DHT22;25563;50.844;4.308;2023-06-10T15:18:21;43.70;33.90
39889;DHT22;25563;50.844;4.308;2023-06-10T15:20:47;44.50;33.90
39889;DHT22;25563;50.844;4.308;2023-06-10T15:23:13;44.80;33.50
39889;DHT22;25563;50.844;4.308;2023-06-10T15:25:38;44.30;34.20
39889;DHT22;25563;50.844;4.308;2023-06-10T15:28:06;44.60;33.30
39889;DHT22;25563;50.844;4.308;2023-06-10T15:30:32;44.40;33.10
39889;DHT22;25563;50.844;4.308;2023-06-10T15:32:57;42.50;33.80
39889;DHT22;25563;50.844;4.308;2023-06-10T15:35:23;41.20;34.80
39889;DHT22;25563;50.844;4.308;2023-06-10T15:37:49;42.20;34.80
39889;DHT22;25563;50.844;4.308;2023-06-10T15:40:15;43.30;34.30
39889;DHT22;25563;50.844;4.308;2023-06-10T15:42:41;44.10;33.80
39889;DHT22;25563;50.844;4.308;2023-06-10T15:45:06;44.30;33.70
39889;DHT22;25563;50.844;4.308;2023-06-10T15:47:32;44.40;33.60
39889;DHT22;25563;50.844;4.308;2023-06-10T15:49:58;44.80;33.50
39889;DHT22;25563;50.844;4.308;2023-06-10T15:52:23;45.50;33.60
39889;DHT22;25563;50.844;4.308;2023-06-10T15:54:50;45.90;34.20
39889;DHT22;25563;50.844;4.308;2023-06-10T15:57:15;46.20;34.00